Terminal Aerodrome Forecast
Issued by NWS North Platte, NE

Home | Current Version | Previous Version | Text Only | Print | Product List | Glossary On
Versions: 1 2 3 4 5 6 7 8 9 10 11 12 13 14 15 16 17
480
FTUS43 KLBF 221120
TAFLBF
TAF
KLBF 221120Z 2212/2312 12009KT P6SM BKN009 OVC040
     FM221600 13006KT 2SM -SN OVC020
     FM221800 15007KT 2SM -SN OVC015
     FM222100 15006KT P6SM -SN OVC008
     FM230000 15004KT P6SM BKN008
     FM230300 VRB03KT P6SM BKN010=

USA.gov is the U.S. government's official web portal to all federal, state and local government web resources and services.